Time;durP1;ratioP1;P1;durP2;ratioP2;P2;SDS_P1;SDS_P2;PMS_P1;PMS_P2;Temp;Humidity;BMP_temperature;BMP_pressure;BME280_temperature;BME280_humidity;BME280_pressure;Samples;Min_cycle;Max_cycle;Signal;HPM_P1;HPM_P2
2022/06/01 00:02:28;;;;;;;12.20;5.70;;;;;;;8.58;96.13;99823.23;105004;1271;61353;-64
2022/06/01 00:05:15;;;;;;;13.00;6.10;;;;;;;8.62;96.08;99819.72;105075;1271;73226;-62
2022/06/01 00:08:02;;;;;;;12.20;5.90;;;;;;;8.67;96.00;99819.92;105060;1271;68397;-62
2022/06/01 00:10:50;;;;;;;16.10;6.20;;;;;;;8.70;95.72;99817.73;104936;1271;74358;-64
2022/06/01 00:13:38;;;;;;;12.60;5.90;;;;;;;8.76;95.62;99812.88;104977;1271;59698;-63
2022/06/01 00:16:25;;;;;;;11.90;6.00;;;;;;;8.81;95.78;99814.82;104739;1274;61260;-63
2022/06/01 00:19:12;;;;;;;11.30;5.20;;;;;;;8.81;95.39;99817.45;104385;1271;1002899;-62
2022/06/01 00:22:14;;;;;;;10.90;4.90;;;;;;;8.81;95.35;99815.83;105001;1271;67315;-63
2022/06/01 00:25:01;;;;;;;10.10;5.00;;;;;;;8.82;95.18;99813.65;105259;1271;74459;-62
2022/06/01 00:27:48;;;;;;;10.40;5.50;;;;;;;8.80;95.57;99807.23;105115;1270;61255;-64
2022/06/01 00:30:36;;;;;;;10.90;5.10;;;;;;;8.77;95.36;99803.23;105198;1271;60334;-59
2022/06/01 00:33:23;;;;;;;12.90;5.80;;;;;;;8.77;95.39;99813.36;105069;1271;71498;-60
2022/06/01 00:36:10;;;;;;;11.50;5.30;;;;;;;8.74;95.51;99816.20;105178;1271;69054;-59
2022/06/01 00:38:56;;;;;;;12.70;5.20;;;;;;;8.73;95.50;99814.71;105199;1271;73804;-61
2022/06/01 00:41:43;;;;;;;10.00;4.70;;;;;;;8.73;95.61;99814.35;105238;1271;60116;-62
2022/06/01 00:44:29;;;;;;;11.10;5.30;;;;;;;8.74;96.64;99816.23;105050;1271;59972;-64
2022/06/01 00:47:18;;;;;;;9.40;4.80;;;;;;;8.78;96.91;99813.81;105084;1271;73536;-61
2022/06/01 00:50:30;;;;;;;11.10;5.20;;;;;;;8.80;96.90;99809.39;104969;1271;69522;-62
2022/06/01 00:53:22;;;;;;;10.10;4.90;;;;;;;8.83;97.31;99810.59;104923;1271;74671;-60
2022/06/01 00:56:20;;;;;;;8.80;4.50;;;;;;;8.84;96.87;99805.90;104762;1271;59679;-62
2022/06/01 00:59:13;;;;;;;10.50;5.40;;;;;;;8.83;96.19;99800.71;104888;1271;59617;-63
2022/06/01 01:02:02;;;;;;;9.90;4.80;;;;;;;8.78;95.94;99793.77;104965;1271;73618;-64
2022/06/01 01:04:49;;;;;;;10.20;5.00;;;;;;;8.72;95.39;99787.16;104963;1271;68714;-60
2022/06/01 01:07:38;;;;;;;12.30;5.70;;;;;;;8.64;95.40;99784.60;104872;1271;73331;-61
2022/06/01 01:10:24;;;;;;;10.20;5.20;;;;;;;8.56;95.23;99781.66;104963;1271;60310;-61
2022/06/01 01:13:14;;;;;;;10.40;4.90;;;;;;;8.48;95.51;99777.08;105047;1271;59649;-61
2022/06/01 01:16:01;;;;;;;9.90;4.70;;;;;;;8.42;95.68;99772.17;104767;1271;74001;-60
2022/06/01 01:18:51;;;;;;;9.40;4.80;;;;;;;8.37;95.80;99764.80;105270;1271;66946;-61
2022/06/01 01:21:57;;;;;;;11.10;4.70;;;;;;;8.31;95.89;99761.36;104815;1272;73513;-62
2022/06/01 01:25:09;;;;;;;10.60;5.10;;;;;;;8.26;96.14;99760.83;105227;1271;59653;-62
2022/06/01 01:27:59;;;;;;;12.30;5.00;;;;;;;8.26;96.75;99757.97;105161;1271;62005;-60
2022/06/01 01:31:10;;;;;;;10.80;4.80;;;;;;;8.23;96.49;99757.65;105125;1271;72871;-65
2022/06/01 01:33:56;;;;;;;12.30;5.10;;;;;;;8.18;96.76;99752.34;104809;1271;69627;-61
2022/06/01 01:36:53;;;;;;;10.30;5.00;;;;;;;8.14;96.49;99745.25;104740;1274;74304;-60
2022/06/01 01:39:39;;;;;;;10.80;5.10;;;;;;;8.09;96.84;99745.61;105093;1271;59768;-62
2022/06/01 01:42:26;;;;;;;10.90;5.90;;;;;;;8.07;96.98;99744.20;104887;1271;60685;-61
2022/06/01 01:45:25;;;;;;;10.30;5.20;;;;;;;8.05;97.33;99743.80;105003;1271;72962;-62
2022/06/01 01:48:12;;;;;;;10.20;5.60;;;;;;;8.03;97.50;99747.27;104987;1271;68737;-61
2022/06/01 01:50:59;;;;;;;11.30;5.60;;;;;;;8.06;98.32;99742.98;104931;1271;73417;-64
2022/06/01 01:53:46;;;;;;;14.40;6.50;;;;;;;8.11;99.55;99737.65;105051;1271;60036;-61
2022/06/01 01:56:54;;;;;;;10.40;6.10;;;;;;;8.22;100.00;99737.92;105014;1271;61539;-60
2022/06/01 02:00:22;;;;;;;10.90;5.90;;;;;;;8.31;99.99;99729.02;105336;1271;73645;-61
2022/06/01 02:03:14;;;;;;;12.40;6.50;;;;;;;8.40;99.95;99730.12;104459;1280;69076;-61
2022/06/01 02:06:30;;;;;;;12.90;6.70;;;;;;;8.50;100.00;99724.40;104404;1279;74548;-61
2022/06/01 02:09:17;;;;;;;11.90;6.50;;;;;;;8.63;100.00;99716.23;104507;1279;60188;-61
2022/06/01 02:15:32;;;;;;;10.80;6.30;;;;;;;8.83;100.00;99712.91;104240;1280;73582;-62
2022/06/01 02:18:29;;;;;;;10.70;5.90;;;;;;;8.91;99.71;99708.66;104223;1280;69927;-62
2022/06/01 02:21:21;;;;;;;11.20;6.20;;;;;;;8.98;99.63;99708.83;104101;1279;74691;-62
2022/06/01 02:24:08;;;;;;;11.10;6.20;;;;;;;9.04;99.53;99711.54;104166;1280;59967;-61
2022/06/01 02:26:56;;;;;;;10.00;5.90;;;;;;;9.08;99.15;99708.77;104271;1279;59765;-61
2022/06/01 02:30:19;;;;;;;10.80;6.10;;;;;;;9.11;98.64;99709.23;104264;1279;73867;-62
2022/06/01 02:33:11;;;;;;;11.90;6.60;;;;;;;9.14;98.63;99700.64;104226;1279;68828;-60
2022/06/01 02:35:59;;;;;;;12.30;6.90;;;;;;;9.16;98.14;99701.36;104307;1280;71776;-61
2022/06/01 02:38:50;;;;;;;10.20;6.10;;;;;;;9.16;97.72;99701.95;104363;1275;63006;-62
2022/06/01 02:44:41;;;;;;;11.60;6.60;;;;;;;9.13;98.32;99700.55;105286;1271;73863;-60
2022/06/01 02:47:34;;;;;;;12.30;6.50;;;;;;;9.15;98.54;99691.22;105141;1271;69435;-62
2022/06/01 02:50:28;;;;;;;12.20;6.40;;;;;;;9.16;98.25;99689.36;105114;1271;73219;-63
2022/06/01 02:53:15;;;;;;;13.10;6.70;;;;;;;9.16;98.09;99689.33;105096;1272;59607;-62
2022/06/01 02:56:01;;;;;;;12.30;6.50;;;;;;;9.14;97.64;99693.38;105078;1271;59656;-63
2022/06/01 02:58:49;;;;;;;10.60;6.30;;;;;;;9.12;97.31;99693.92;105041;1271;72908;-64
2022/06/01 03:01:36;;;;;;;11.20;6.20;;;;;;;9.07;96.93;99689.35;105044;1271;67767;-66
2022/06/01 03:04:23;;;;;;;11.70;6.20;;;;;;;9.03;96.74;99691.56;105093;1271;73469;-63
2022/06/01 03:07:12;;;;;;;11.00;6.00;;;;;;;8.97;96.27;99688.19;105202;1271;59646;-61
2022/06/01 03:09:59;;;;;;;10.60;6.30;;;;;;;8.90;96.46;99687.83;104918;1271;62087;-61
2022/06/01 03:12:45;;;;;;;11.80;6.60;;;;;;;8.83;96.42;99688.66;105054;1271;73726;-60
2022/06/01 03:15:32;;;;;;;11.90;7.50;;;;;;;8.78;96.94;99690.52;104969;1271;69576;-61
2022/06/01 03:18:19;;;;;;;12.40;7.10;;;;;;;8.75;97.68;99686.48;104837;1271;72744;-63
2022/06/01 03:21:05;;;;;;;13.20;6.80;;;;;;;8.73;98.22;99681.70;104842;1271;59662;-61
2022/06/01 03:23:52;;;;;;;12.30;6.40;;;;;;;8.73;98.36;99684.38;104965;1271;61146;-63
2022/06/01 03:26:38;;;;;;;11.90;6.20;;;;;;;8.72;98.11;99684.73;104948;1271;73838;-62
2022/06/01 03:29:24;;;;;;;13.60;6.80;;;;;;;8.72;98.21;99681.76;105051;1271;68632;-61
2022/06/01 03:32:12;;;;;;;10.90;6.30;;;;;;;8.72;97.47;99686.89;104912;1271;74708;-61
2022/06/01 03:35:01;;;;;;;15.80;7.30;;;;;;;8.71;97.18;99688.59;104795;1271;59789;-63
2022/06/01 03:37:48;;;;;;;14.80;8.30;;;;;;;8.68;97.55;99686.66;104751;1273;62012;-62
2022/06/01 03:40:37;;;;;;;15.50;7.60;;;;;;;8.72;98.71;99687.28;104887;1271;75000;-63
2022/06/01 03:43:24;;;;;;;13.20;7.50;;;;;;;8.76;99.06;99691.23;104850;1271;67270;-61
2022/06/01 03:46:11;;;;;;;15.10;7.80;;;;;;;8.77;98.54;99689.71;104878;1271;74612;-64
2022/06/01 03:48:58;;;;;;;12.70;7.40;;;;;;;8.76;98.45;99688.88;104991;1271;59814;-61
2022/06/01 03:51:47;;;;;;;15.20;8.20;;;;;;;8.81;99.28;99697.51;104690;1273;62028;-61
2022/06/01 03:54:34;;;;;;;12.50;7.70;;;;;;;8.88;99.76;99691.57;105105;1271;73671;-60
2022/06/01 03:57:21;;;;;;;14.30;7.40;;;;;;;8.95;99.86;99682.69;105063;1271;65665;-62
2022/06/01 04:00:13;;;;;;;13.80;7.80;;;;;;;8.98;98.83;99678.34;105119;1271;74772;-61
2022/06/01 04:03:00;;;;;;;13.20;7.10;;;;;;;9.03;98.34;99680.80;104994;1271;60283;-66
2022/06/01 04:05:48;;;;;;;18.40;8.60;;;;;;;9.08;98.01;99690.73;104840;1271;60962;-64
2022/06/01 04:08:35;;;;;;;14.30;7.20;;;;;;;9.12;98.27;99690.75;105386;1271;74643;-63
2022/06/01 04:11:21;;;;;;;16.90;7.70;;;;;;;9.13;98.74;99686.55;105132;1271;69405;-63
2022/06/01 04:14:09;;;;;;;13.30;7.40;;;;;;;9.25;98.96;99692.22;105712;1271;74615;-64
2022/06/01 04:16:56;;;;;;;14.60;7.90;;;;;;;9.33;99.37;99685.08;104904;1271;60177;-62
2022/06/01 04:19:42;;;;;;;12.80;7.90;;;;;;;9.41;99.33;99679.96;105183;1271;59646;-62
2022/06/01 04:22:29;;;;;;;12.50;7.30;;;;;;;9.51;99.30;99678.65;105204;1271;73586;-63
2022/06/01 04:25:18;;;;;;;14.50;7.40;;;;;;;9.63;98.82;99671.70;104803;1271;68569;-63
2022/06/01 04:28:04;;;;;;;11.60;7.00;;;;;;;9.79;98.51;99670.80;105001;1271;73396;-64
2022/06/01 04:30:51;;;;;;;18.70;7.50;;;;;;;9.95;98.35;99671.25;105165;1271;61295;-64
2022/06/01 04:33:41;;;;;;;13.90;7.20;;;;;;;10.12;98.22;99669.37;104797;1271;61990;-65
2022/06/01 04:36:27;;;;;;;15.00;7.50;;;;;;;10.25;97.59;99667.35;104829;1271;74035;-64
2022/06/01 04:39:14;;;;;;;11.90;6.50;;;;;;;10.37;97.25;99656.00;104703;1274;68672;-64
2022/06/01 04:42:02;;;;;;;15.00;7.30;;;;;;;10.48;96.71;99650.15;104853;1271;73344;-65
2022/06/01 04:44:49;;;;;;;11.40;6.50;;;;;;;10.58;96.31;99651.23;104966;1271;59650;-64
2022/06/01 04:47:35;;;;;;;14.70;6.60;;;;;;;10.68;95.60;99647.54;104913;1271;62736;-62
2022/06/01 04:50:22;;;;;;;13.50;5.90;;;;;;;10.78;95.09;99643.86;104753;1271;73719;-63
2022/06/01 04:53:14;;;;;;;12.60;5.80;;;;;;;10.88;95.00;99638.36;104739;1271;68617;-67
2022/06/01 04:56:01;;;;;;;12.90;5.60;;;;;;;11.01;94.65;99631.40;104657;1271;73300;-65
2022/06/01 04:58:47;;;;;;;9.50;5.40;;;;;;;11.14;94.63;99635.46;104871;1271;59798;-65
2022/06/01 05:01:34;;;;;;;9.10;5.30;;;;;;;11.30;94.27;99638.84;104730;1271;61427;-64
2022/06/01 05:04:21;;;;;;;9.80;4.90;;;;;;;11.52;94.08;99633.41;104955;1274;73706;-64
2022/06/01 05:07:08;;;;;;;9.60;4.60;;;;;;;12.04;93.72;99632.31;105479;1274;68721;-65
2022/06/01 05:09:54;;;;;;;11.90;4.60;;;;;;;12.68;91.66;99629.37;106204;1271;71759;-63
2022/06/01 05:12:41;;;;;;;11.20;5.00;;;;;;;13.08;89.69;99630.05;106264;1270;59422;-64
2022/06/01 05:15:27;;;;;;;9.20;4.30;;;;;;;13.23;87.77;99630.95;106500;1271;60933;-63
2022/06/01 05:18:15;;;;;;;10.60;4.40;;;;;;;13.23;87.79;99633.78;105311;1271;71220;-63
2022/06/01 05:21:01;;;;;;;10.20;4.80;;;;;;;13.20;87.83;99633.20;105000;1271;69575;-66
2022/06/01 05:23:48;;;;;;;11.70;4.80;;;;;;;13.14;87.72;99634.85;104928;1271;74254;-64
2022/06/01 05:26:35;;;;;;;7.60;4.10;;;;;;;13.12;88.37;99635.73;105168;1271;61345;-64
2022/06/01 05:29:22;;;;;;;10.50;4.50;;;;;;;13.14;88.26;99636.25;104951;1271;60116;-66
2022/06/01 05:32:10;;;;;;;9.20;3.80;;;;;;;13.21;87.75;99632.89;104976;1271;72501;-64
2022/06/01 05:34:58;;;;;;;10.80;5.10;;;;;;;13.76;86.57;99635.25;104859;1271;66697;-63
2022/06/01 05:37:44;;;;;;;12.80;7.40;;;;;;;14.62;83.07;99626.39;104974;1271;73734;-66
2022/06/01 05:40:31;;;;;;;11.70;4.80;;;;;;;15.01;81.26;99627.35;104777;1271;59900;-65
2022/06/01 05:43:19;;;;;;;11.40;4.90;;;;;;;15.20;79.37;99632.30;104881;1271;61266;-62
2022/06/01 05:46:06;;;;;;;9.00;3.80;;;;;;;15.20;79.36;99632.34;104700;1272;74734;-63
2022/06/01 05:48:52;;;;;;;9.70;4.00;;;;;;;15.31;76.46;99634.04;104775;1271;68400;-64
2022/06/01 05:51:39;;;;;;;8.90;3.60;;;;;;;15.54;75.09;99635.94;104902;1272;72430;-66
2022/06/01 05:54:26;;;;;;;8.60;3.20;;;;;;;16.01;73.18;99636.18;104908;1271;59784;-62
2022/06/01 05:57:12;;;;;;;8.10;3.60;;;;;;;16.05;72.87;99637.29;104887;1271;59633;-63
2022/06/01 05:59:59;;;;;;;7.20;2.80;;;;;;;17.32;68.93;99633.48;104773;1274;74647;-62
2022/06/01 06:02:45;;;;;;;7.30;2.80;;;;;;;18.42;64.86;99624.33;104922;1271;68385;-63
2022/06/01 06:08:51;;;;;;;16.50;11.50;;;;;;;19.24;58.05;99621.60;104775;1271;59947;-64
2022/06/01 06:11:41;;;;;;;7.00;2.90;;;;;;;19.41;57.52;99625.10;104877;1271;61477;-63
2022/06/01 06:14:27;;;;;;;9.30;5.40;;;;;;;19.63;56.41;99620.94;104920;1271;74914;-64
2022/06/01 06:17:14;;;;;;;11.50;5.30;;;;;;;20.35;54.57;99614.60;104920;1271;68605;-63
2022/06/01 06:20:01;;;;;;;7.10;2.90;;;;;;;20.96;53.10;99610.13;104978;1271;72302;-61
2022/06/01 06:22:48;;;;;;;8.50;3.80;;;;;;;21.35;49.71;99604.09;104961;1271;59926;-65
2022/06/01 06:25:35;;;;;;;7.40;3.70;;;;;;;20.93;50.48;99608.02;104944;1271;60784;-64
2022/06/01 06:28:22;;;;;;;7.30;3.40;;;;;;;20.59;52.35;99605.83;105008;1271;73752;-63
2022/06/01 06:31:09;;;;;;;7.10;2.70;;;;;;;21.70;50.68;99601.05;104942;1271;69972;-64
2022/06/01 06:33:56;;;;;;;9.30;4.70;;;;;;;21.79;49.46;99601.91;104738;1272;72092;-64
2022/06/01 06:36:44;;;;;;;12.90;6.70;;;;;;;21.61;49.87;99603.51;104985;1271;59748;-64
2022/06/01 06:39:31;;;;;;;7.40;3.20;;;;;;;20.76;51.21;99608.71;104962;1272;62093;-64
2022/06/01 06:42:17;;;;;;;9.60;4.40;;;;;;;20.05;52.81;99610.50;104982;1271;72272;-63
2022/06/01 06:45:05;;;;;;;8.20;3.20;;;;;;;20.76;51.20;99604.60;104788;1271;69416;-63
2022/06/01 06:47:51;;;;;;;6.50;2.40;;;;;;;20.92;50.41;99606.14;104908;1271;71610;-63
2022/06/01 06:50:38;;;;;;;7.10;2.20;;;;;;;20.59;51.19;99604.58;105123;1271;59819;-62
2022/06/01 06:53:40;;;;;;;8.60;3.70;;;;;;;20.36;51.05;99605.68;104947;1271;60865;-62
2022/06/01 06:56:27;;;;;;;6.50;2.10;;;;;;;21.48;48.70;99602.54;104815;1271;74555;-63
2022/06/01 06:59:16;;;;;;;7.10;2.30;;;;;;;22.57;46.27;99593.33;104840;1271;68533;-63
2022/06/01 07:02:04;;;;;;;7.80;2.40;;;;;;;23.50;43.35;99587.11;104935;1271;74356;-65
2022/06/01 07:04:50;;;;;;;7.60;2.30;;;;;;;24.50;41.24;99579.10;105048;1271;59687;-65
2022/06/01 07:07:37;;;;;;;6.20;2.10;;;;;;;25.52;37.50;99566.66;104830;1271;60580;-62
2022/06/01 07:10:24;;;;;;;7.20;1.90;;;;;;;26.48;36.03;99569.11;104975;1271;73144;-68
2022/06/01 07:13:11;;;;;;;6.00;1.90;;;;;;;26.92;34.87;99557.32;104814;1271;68409;-65
2022/06/01 07:16:22;;;;;;;7.90;2.30;;;;;;;27.33;34.20;99549.73;104854;1271;73723;-68
2022/06/01 07:19:09;;;;;;;7.60;1.80;;;;;;;27.55;33.18;99545.41;104771;1271;60011;-64
2022/06/01 07:21:55;;;;;;;6.70;1.60;;;;;;;27.74;32.44;99546.42;104914;1271;59531;-65
2022/06/01 07:24:42;;;;;;;7.20;3.30;;;;;;;27.92;32.35;99542.12;104968;1271;73609;-64
2022/06/01 07:27:28;;;;;;;5.90;1.80;;;;;;;28.07;31.76;99537.14;104947;1271;68505;-62
2022/06/01 07:30:16;;;;;;;5.80;1.60;;;;;;;28.08;31.63;99532.66;104851;1271;74241;-64
2022/06/01 07:33:03;;;;;;;6.10;1.70;;;;;;;28.36;31.43;99529.02;104646;1271;59643;-66
2022/06/01 07:35:50;;;;;;;6.90;1.70;;;;;;;27.63;32.29;99524.42;104933;1271;61546;-65
2022/06/01 07:45:04;;;;;;;9.10;3.40;;;;;;;23.83;37.93;99533.85;104999;1271;73231;-64
2022/06/01 07:47:51;;;;;;;7.90;2.70;;;;;;;22.53;41.18;99534.16;104764;1271;59779;-61
2022/06/01 07:50:58;;;;;;;6.90;2.20;;;;;;;21.58;43.68;99536.39;105016;1271;60325;-67
2022/06/01 07:53:44;;;;;;;10.80;2.80;;;;;;;21.17;45.21;99538.06;104968;1271;72951;-65
2022/06/01 07:56:32;;;;;;;9.50;3.00;;;;;;;20.42;46.77;99541.29;104962;1271;68575;-62
2022/06/01 07:59:19;;;;;;;7.80;2.70;;;;;;;19.69;48.78;99541.70;104882;1271;73442;-63
2022/06/01 08:02:09;;;;;;;9.40;3.50;;;;;;;19.00;51.01;99548.45;105026;1271;59935;-63
2022/06/01 08:04:56;;;;;;;8.90;3.10;;;;;;;18.30;53.20;99552.79;104918;1271;59653;-64
2022/06/01 08:07:43;;;;;;;8.60;3.10;;;;;;;17.78;55.16;99558.89;104837;1271;73620;-65
2022/06/01 08:10:30;;;;;;;7.50;2.90;;;;;;;17.29;57.24;99556.70;104688;1273;65588;-65
2022/06/01 08:13:17;;;;;;;8.30;3.10;;;;;;;16.93;58.41;99557.84;104902;1271;74528;-63
2022/06/01 08:16:04;;;;;;;10.20;4.00;;;;;;;16.69;59.84;99555.54;104918;1271;60044;-65
2022/06/01 08:18:52;;;;;;;8.20;3.10;;;;;;;16.38;61.12;99561.65;104835;1271;59585;-67
2022/06/01 08:21:38;;;;;;;8.70;3.80;;;;;;;16.16;62.12;99560.30;104813;1271;73798;-66
2022/06/01 08:24:26;;;;;;;9.00;3.40;;;;;;;16.14;62.88;99556.80;104900;1271;68512;-66
2022/06/01 08:27:13;;;;;;;9.90;3.90;;;;;;;16.19;63.27;99554.59;104952;1271;73337;-64
2022/06/01 08:29:59;;;;;;;23.10;15.80;;;;;;;16.45;62.97;99553.23;105026;1271;59777;-65
2022/06/01 08:32:46;;;;;;;10.40;4.40;;;;;;;16.71;62.43;99546.23;104968;1271;60556;-63
2022/06/01 08:35:37;;;;;;;10.10;3.70;;;;;;;17.72;60.66;99541.25;104812;1271;73693;-69
2022/06/01 08:38:24;;;;;;;12.70;5.80;;;;;;;18.88;57.23;99536.41;105000;1271;69164;-67
2022/06/01 08:41:14;;;;;;;12.00;3.90;;;;;;;19.39;54.83;99537.01;104915;1270;74522;-63
2022/06/01 08:44:27;;;;;;;9.80;3.30;;;;;;;19.34;54.27;99534.58;104917;1271;59689;-65
2022/06/01 08:47:27;;;;;;;7.60;2.90;;;;;;;19.22;54.69;99526.35;105035;1271;60913;-66
2022/06/01 08:50:38;;;;;;;8.30;3.30;;;;;;;19.21;54.34;99521.56;105021;1271;74675;-65
2022/06/01 08:53:24;;;;;;;9.70;3.40;;;;;;;19.25;54.06;99522.81;105084;1271;68643;-66
2022/06/01 08:56:23;;;;;;;7.20;3.30;;;;;;;19.38;54.03;99515.08;104702;1271;73279;-65
2022/06/01 08:59:36;;;;;;;7.90;3.20;;;;;;;19.65;54.16;99512.29;104873;1271;59732;-64
2022/06/01 09:03:10;;;;;;;7.80;3.00;;;;;;;19.75;53.48;99510.44;104764;1274;59567;-66
2022/06/01 09:06:12;;;;;;;9.00;3.00;;;;;;;19.43;53.78;99511.64;105154;1271;73683;-61
2022/06/01 09:09:37;;;;;;;8.10;2.90;;;;;;;19.17;54.26;99505.66;105055;1271;68528;-64
2022/06/01 09:12:24;;;;;;;8.60;2.80;;;;;;;18.99;54.73;99503.23;104943;1271;73461;-66
2022/06/01 09:15:27;;;;;;;8.30;3.00;;;;;;;18.85;55.14;99501.94;104963;1271;59946;-63
2022/06/01 09:18:19;;;;;;;18.40;11.30;;;;;;;18.99;55.15;99502.02;104786;1271;60548;-65
2022/06/01 09:24:28;;;;;;;9.50;3.10;;;;;;;21.13;50.05;99488.70;104812;1271;69549;-61
2022/06/01 09:27:15;;;;;;;8.70;3.10;;;;;;;22.44;47.39;99478.77;104941;1271;73498;-66
2022/06/01 09:30:22;;;;;;;12.90;3.50;;;;;;;23.35;45.02;99471.16;104823;1271;59765;-67
2022/06/01 09:33:33;;;;;;;12.80;5.70;;;;;;;24.23;43.35;99463.33;105146;1271;59740;-64
2022/06/01 09:36:28;;;;;;;8.50;3.80;;;;;;;24.74;40.59;99456.70;104847;1271;73560;-63
2022/06/01 09:39:19;;;;;;;11.40;3.30;;;;;;;24.72;39.94;99455.55;105196;1271;69585;-63
2022/06/01 09:42:35;;;;;;;6.90;2.50;;;;;;;25.50;38.87;99453.80;105209;1271;73377;-64
2022/06/01 09:45:28;;;;;;;10.50;2.90;;;;;;;25.55;38.17;99450.23;105173;1271;59660;-67
2022/06/01 09:48:29;;;;;;;8.90;3.10;;;;;;;24.95;38.75;99449.79;104974;1271;60421;-64
2022/06/01 09:51:23;;;;;;;8.30;2.60;;;;;;;24.35;39.94;99448.71;104935;1271;74753;-63
2022/06/01 09:54:37;;;;;;;7.30;2.90;;;;;;;23.94;40.77;99439.05;104811;1271;68510;-64
2022/06/01 09:57:31;;;;;;;11.90;3.20;;;;;;;23.37;41.88;99434.10;105251;1271;73277;-65
2022/06/01 10:07:00;;;;;;;9.20;3.10;;;;;;;22.02;44.69;99441.05;105032;1271;74066;-64
2022/06/01 10:09:56;;;;;;;8.20;3.50;;;;;;;21.97;45.18;99429.23;105355;1271;67458;-64
2022/06/01 10:12:52;;;;;;;10.50;3.30;;;;;;;22.08;44.89;99424.47;104938;1271;73358;-62
2022/06/01 10:15:51;;;;;;;9.80;3.10;;;;;;;21.98;44.95;99418.96;104831;1271;59712;-62
2022/06/01 10:18:41;;;;;;;9.50;2.70;;;;;;;21.75;45.60;99418.64;104956;1271;61085;-65
2022/06/01 10:22:05;;;;;;;7.90;3.30;;;;;;;21.46;45.19;99416.60;104993;1271;73523;-65
2022/06/01 10:25:06;;;;;;;9.40;2.90;;;;;;;21.36;45.94;99409.80;105081;1271;69635;-66
2022/06/01 10:28:02;;;;;;;7.00;2.80;;;;;;;21.57;45.39;99407.55;105012;1271;74342;-64
2022/06/01 10:31:29;;;;;;;8.20;3.70;;;;;;;21.70;43.89;99396.44;105172;1271;59626;-64
2022/06/01 10:34:42;;;;;;;7.70;2.90;;;;;;;22.44;43.51;99389.75;104800;1271;60512;-65
2022/06/01 10:37:39;;;;;;;8.70;3.10;;;;;;;22.53;43.23;99391.02;105007;1271;74102;-67
2022/06/01 10:41:11;;;;;;;13.30;6.10;;;;;;;22.22;43.77;99386.97;104990;1271;66910;-65
2022/06/01 10:44:16;;;;;;;8.50;3.10;;;;;;;21.81;46.00;99388.93;105324;1271;74272;-62
2022/06/01 10:47:10;;;;;;;9.80;3.40;;;;;;;21.43;47.63;99386.53;104868;1270;59641;-64
2022/06/01 10:50:18;;;;;;;8.60;3.40;;;;;;;21.21;48.93;99388.58;104713;1271;60471;-62
2022/06/01 10:53:19;;;;;;;9.70;3.10;;;;;;;20.92;49.53;99383.67;104685;1271;73984;-62
2022/06/01 10:56:06;;;;;;;9.20;3.00;;;;;;;20.73;50.42;99381.79;105027;1271;69486;-62
2022/06/01 10:59:01;;;;;;;7.90;3.10;;;;;;;20.57;51.33;99384.67;105026;1271;72228;-67
2022/06/01 11:02:28;;;;;;;8.00;3.60;;;;;;;20.42;52.63;99390.26;104851;1271;59649;-66
2022/06/01 11:06:04;;;;;;;10.70;3.80;;;;;;;20.15;53.22;99388.24;104942;1271;59652;-65
2022/06/01 11:09:02;;;;;;;7.30;3.40;;;;;;;19.93;53.51;99391.17;104938;1271;73563;-64
2022/06/01 11:12:07;;;;;;;7.60;3.30;;;;;;;19.87;53.88;99387.14;104883;1271;70030;-64
2022/06/01 11:15:20;;;;;;;10.30;3.40;;;;;;;19.84;54.29;99388.82;105189;1271;74800;-68
2022/06/01 11:18:47;;;;;;;8.60;3.50;;;;;;;19.82;54.01;99387.30;105070;1271;59655;-66
2022/06/01 11:22:22;;;;;;;8.70;3.50;;;;;;;19.84;54.35;99385.33;104894;1270;61933;-64
2022/06/01 11:25:37;;;;;;;9.40;4.00;;;;;;;19.93;54.52;99381.16;105078;1271;74840;-63
2022/06/01 11:28:33;;;;;;;8.20;3.20;;;;;;;20.12;54.19;99383.57;104384;1277;68630;-66
2022/06/01 11:31:24;;;;;;;8.30;3.70;;;;;;;20.36;53.97;99376.31;104376;1277;72383;-63
2022/06/01 11:34:45;;;;;;;8.40;3.70;;;;;;;20.64;53.45;99374.25;104302;1277;59977;-63
2022/06/01 11:37:46;;;;;;;9.30;3.70;;;;;;;20.91;52.63;99369.40;104513;1277;59603;-63
2022/06/01 11:40:38;;;;;;;7.10;3.20;;;;;;;21.01;52.21;99373.67;104297;1277;74598;-62
2022/06/01 11:43:33;;;;;;;9.40;3.50;;;;;;;20.92;52.32;99370.11;104320;1277;68447;-62
2022/06/01 11:46:51;;;;;;;9.70;3.50;;;;;;;20.81;52.05;99367.66;104233;1277;73405;-63
2022/06/01 11:49:41;;;;;;;8.60;3.50;;;;;;;20.62;52.73;99369.37;104425;1277;59710;-66
2022/06/01 11:52:33;;;;;;;9.50;4.50;;;;;;;20.45;53.47;99366.09;104578;1277;60593;-62
2022/06/01 11:55:34;;;;;;;8.30;3.70;;;;;;;20.27;53.94;99364.70;104303;1277;73684;-62
2022/06/01 11:58:41;;;;;;;8.80;4.20;;;;;;;20.06;54.35;99359.18;104566;1277;68630;-64
2022/06/01 12:01:47;;;;;;;9.80;4.10;;;;;;;19.83;55.15;99355.41;104211;1279;74423;-64
2022/06/01 12:04:40;;;;;;;8.40;4.00;;;;;;;19.50;55.76;99354.72;104327;1277;59905;-64
2022/06/01 12:07:38;;;;;;;10.10;4.30;;;;;;;19.17;56.90;99354.38;105047;1271;62314;-62
2022/06/01 12:10:53;;;;;;;12.30;4.50;;;;;;;18.80;58.65;99360.36;104931;1274;74310;-64
2022/06/01 12:13:41;;;;;;;8.10;4.00;;;;;;;18.40;59.56;99367.95;105082;1271;68514;-66
2022/06/01 12:16:29;;;;;;;9.10;4.30;;;;;;;18.04;60.51;99379.22;104886;1271;72189;-62
2022/06/01 12:19:18;;;;;;;11.20;4.80;;;;;;;17.64;61.56;99384.29;104941;1271;59653;-63
2022/06/01 12:28:30;;;;;;;11.40;5.00;;;;;;;17.29;62.48;99391.30;104885;1268;59721;-62
2022/06/01 12:29:13;;;;;;;10.50;5.20;;;;;;;16.60;65.13;99390.86;104225;1277;67607;-62
2022/06/01 12:31:59;;;;;;;10.50;4.70;;;;;;;16.42;66.15;99393.52;104562;1277;74105;-63
2022/06/01 12:34:57;;;;;;;10.60;5.60;;;;;;;16.27;66.90;99396.77;104361;1277;59664;-61
2022/06/01 12:37:58;;;;;;;13.00;7.30;;;;;;;16.04;67.52;99398.79;104464;1278;60011;-63
2022/06/01 12:41:11;;;;;;;10.20;5.90;;;;;;;15.74;68.16;99410.66;104535;1280;73563;-63
2022/06/01 12:43:58;;;;;;;10.60;5.90;;;;;;;15.34;70.37;99431.28;104587;1277;69624;-63
2022/06/01 12:46:51;;;;;;;10.50;6.30;;;;;;;14.91;71.57;99432.36;104230;1278;73296;-62
2022/06/01 12:49:45;;;;;;;9.10;4.50;;;;;;;14.67;72.48;99442.95;104361;1279;59780;-63
2022/06/01 12:52:32;;;;;;;10.50;4.70;;;;;;;14.44;72.37;99447.74;104315;1280;60979;-62
2022/06/01 12:55:24;;;;;;;8.70;3.30;;;;;;;14.29;73.35;99453.41;104328;1277;73717;-63
2022/06/01 12:58:22;;;;;;;12.00;2.90;;;;;;;14.11;73.72;99456.64;104216;1279;70779;-62
2022/06/01 13:01:10;;;;;;;6.60;2.30;;;;;;;13.86;74.00;99465.63;104510;1278;72972;-63
2022/06/01 13:04:00;;;;;;;8.70;1.90;;;;;;;13.62;74.93;99467.73;104465;1274;59675;-62
2022/06/01 13:06:47;;;;;;;6.30;2.20;;;;;;;13.33;75.42;99473.04;104903;1271;60231;-65
2022/06/01 13:09:35;;;;;;;8.80;2.50;;;;;;;13.16;75.41;99477.73;105094;1271;73842;-64
2022/06/01 13:12:28;;;;;;;7.40;2.70;;;;;;;13.07;76.85;99474.83;104675;1274;67374;-62
2022/06/01 13:15:28;;;;;;;7.40;2.50;;;;;;;12.94;78.61;99475.70;104796;1271;72076;-62
2022/06/01 13:18:26;;;;;;;7.00;2.40;;;;;;;12.83;78.68;99482.30;104842;1271;59716;-61
2022/06/01 13:21:47;;;;;;;7.80;2.30;;;;;;;12.77;79.72;99484.86;104800;1271;59793;-61
2022/06/01 13:24:45;;;;;;;6.10;2.10;;;;;;;12.74;80.13;99493.30;104540;1279;73055;-62
2022/06/01 13:27:35;;;;;;;9.00;2.30;;;;;;;12.77;80.69;99497.25;104246;1278;69462;-62
2022/06/01 13:30:26;;;;;;;6.80;2.40;;;;;;;12.81;81.01;99496.42;104297;1280;73504;-61
2022/06/01 13:33:25;;;;;;;8.30;2.30;;;;;;;12.83;80.96;99493.20;104318;1279;59725;-61
2022/06/01 13:36:28;;;;;;;6.70;2.50;;;;;;;12.83;81.29;99494.05;104336;1279;59738;-63
2022/06/01 13:39:14;;;;;;;5.40;1.90;;;;;;;12.79;80.91;99489.25;104388;1278;73857;-62
2022/06/01 13:42:04;;;;;;;6.40;2.00;;;;;;;12.80;80.64;99481.75;104304;1279;69611;-60
2022/06/01 13:45:15;;;;;;;5.80;1.90;;;;;;;12.84;80.58;99480.77;104384;1279;73312;-62
2022/06/01 13:48:15;;;;;;;6.80;1.70;;;;;;;12.88;80.61;99480.20;104557;1279;59679;-62
2022/06/01 13:51:13;;;;;;;5.70;1.80;;;;;;;13.01;80.49;99478.29;104267;1280;61035;-61
2022/06/01 13:54:01;;;;;;;5.70;1.70;;;;;;;13.19;80.51;99483.84;104398;1280;73782;-60
2022/06/01 13:56:49;;;;;;;5.60;1.60;;;;;;;13.37;79.83;99486.92;104308;1279;67597;-63